Terminal Aerodrome Forecast
Issued by NWS

Home | Current Version | Previous Version | Text Only | Print | Product List | Glossary On
Versions: 1 2 3 4 5 6 7 8 9 10 11 12 13 14 15 16 17 18 19 20 21 22 23 24 25 26 27 28 29 30 31 32 33 34 35 36 37 38 39 40 41 42 43 44 45 46 47 48 49 50
000
FTUS41 KCTP 231700 AAB
TAFUNV
TAF AMD
KUNV 231700Z 2317/2412 07010G16KT 3SM -RA SCT006 OVC015
     FM231800 08013G20KT 3SM -RA BR OVC006
     FM232000 07012G22KT 1SM RA BR OVC005 WS020/09030KT
     FM232300 06012G22KT 1SM -RASN BR OVC003 WS020/07040KT
     FM240900 02008G20KT 2SM -SN BR OVC006=

USA.gov is the U.S. government's official web portal to all federal, state and local government web resources and services.